Time;durP1;ratioP1;P1;durP2;ratioP2;P2;SDS_P1;SDS_P2;PMS_P1;PMS_P2;Temp;Humidity;BMP_temperature;BMP_pressure;BME280_temperature;BME280_humidity;BME280_pressure;Samples;Min_cycle;Max_cycle;Signal;HPM_P1;HPM_P2
2022/01/28 18:27:52;;;;;;;33.58;26.45;;;;;;;11.84;33.15;94834.03;5116480;27;96518;-52
2022/01/28 18:30:18;;;;;;;18.67;14.63;;;;;;;12.11;32.81;94825.59;5114037;27;96951;-55
2022/01/28 18:32:43;;;;;;;14.68;9.35;;;;;;;12.37;33.66;94819.00;5113659;27;99262;-53
2022/01/28 18:35:09;;;;;;;18.70;10.52;;;;;;;12.64;33.94;94814.81;5095532;27;99238;-52
2022/01/28 18:37:34;;;;;;;21.67;11.35;;;;;;;12.94;34.22;94825.31;5114165;27;96762;-57
2022/01/28 18:40:01;;;;;;;22.65;9.40;;;;;;;13.19;35.03;94822.50;5113604;27;96666;-58
2022/01/28 18:42:42;;;;;;;18.48;8.68;;;;;;;13.42;37.52;94825.47;5114287;27;99734;-57
2022/01/28 18:45:12;;;;;;;18.75;8.25;;;;;;;13.62;36.99;94826.34;5114159;27;100168;-59
2022/01/28 18:47:37;;;;;;;14.25;7.47;;;;;;;13.82;36.74;94837.31;5114358;27;96958;-58
2022/01/28 18:50:03;;;;;;;88.70;63.40;;;;;;;13.96;36.29;94836.06;5114610;27;96919;-56
2022/01/28 18:52:29;;;;;;;26.95;14.30;;;;;;;14.06;35.90;94847.19;5113118;27;99107;-54
2022/01/28 18:54:54;;;;;;;15.98;10.45;;;;;;;14.14;35.12;94853.59;5113402;27;99115;-51
2022/01/28 18:57:30;;;;;;;15.82;10.00;;;;;;;14.18;35.36;94859.88;5114006;27;96851;-53
2022/01/28 18:59:56;;;;;;;18.02;10.60;;;;;;;14.23;36.41;94858.81;5078439;27;96891;-56
2022/01/28 19:02:24;;;;;;;16.80;11.23;;;;;;;14.29;37.43;94865.56;5113263;27;99554;-55
2022/01/28 19:04:50;;;;;;;18.95;12.60;;;;;;;14.34;36.43;94861.81;5113579;27;99383;-55
2022/01/28 19:07:16;;;;;;;18.60;12.73;;;;;;;14.38;37.42;94857.25;5113700;27;96649;-55
2022/01/28 19:09:41;;;;;;;19.52;12.73;;;;;;;14.40;36.81;94860.41;5113812;27;96927;-56
2022/01/28 19:12:07;;;;;;;19.85;12.63;;;;;;;14.41;35.86;94859.25;5111066;27;99379;-57
2022/01/28 19:14:33;;;;;;;16.63;11.40;;;;;;;14.48;36.41;94866.78;5110597;27;99853;-58
2022/01/28 19:16:58;;;;;;;18.23;12.00;;;;;;;14.49;34.76;94868.34;5111163;27;96898;-56
2022/01/28 19:19:25;;;;;;;17.40;11.55;;;;;;;14.48;35.98;94872.97;5092083;27;96907;-59
2022/01/28 19:21:51;;;;;;;15.45;10.90;;;;;;;14.55;35.34;94877.00;5110271;27;100160;-55
2022/01/28 19:24:16;;;;;;;14.15;10.05;;;;;;;14.56;35.83;94873.94;5110523;27;99025;-58
2022/01/28 19:26:41;;;;;;;18.77;9.30;;;;;;;14.57;35.12;94869.28;5111580;27;97168;-54
2022/01/28 19:29:09;;;;;;;15.23;9.65;;;;;;;14.60;34.36;94874.00;5114112;27;96814;-58
2022/01/28 19:31:35;;;;;;;14.52;10.18;;;;;;;14.62;34.23;94882.59;5113218;27;99579;-53
2022/01/28 19:34:00;;;;;;;12.73;9.85;;;;;;;14.61;34.28;94875.59;5112250;27;99600;-58
2022/01/28 19:36:26;;;;;;;14.95;8.75;;;;;;;14.65;33.66;94868.31;5114114;27;96891;-57
2022/01/28 19:38:51;;;;;;;12.05;8.82;;;;;;;14.63;33.70;94867.88;5102327;27;96869;-58
2022/01/28 19:41:16;;;;;;;12.35;7.65;;;;;;;14.65;33.64;94871.03;5099717;27;99637;-58
2022/01/28 19:43:42;;;;;;;12.18;8.07;;;;;;;14.66;33.57;94872.59;5080953;27;99691;-53
2022/01/28 19:46:09;;;;;;;12.75;7.72;;;;;;;14.65;33.34;94865.59;5099866;27;96962;-54
2022/01/28 19:48:36;;;;;;;9.63;6.82;;;;;;;14.64;33.44;94858.56;5100379;27;96861;-53
2022/01/28 19:51:02;;;;;;;8.73;7.05;;;;;;;14.61;33.48;94864.72;5081060;27;99595;-55
2022/01/28 19:53:28;;;;;;;10.38;7.40;;;;;;;14.65;33.11;94849.28;5099043;27;99589;-58
2022/01/28 19:55:54;;;;;;;10.15;7.00;;;;;;;14.64;33.08;94853.13;5099858;27;96617;-54
2022/01/28 19:58:19;;;;;;;10.23;6.93;;;;;;;14.61;32.85;94859.28;5081401;27;96894;-55
2022/01/28 20:00:45;;;;;;;9.05;6.80;;;;;;;14.65;32.90;94868.31;5099048;27;99619;-56
2022/01/28 20:03:10;;;;;;;8.68;6.28;;;;;;;14.66;32.58;94862.53;5099052;27;99364;-55
2022/01/28 20:05:36;;;;;;;9.27;6.47;;;;;;;14.66;32.63;94856.28;5099875;27;96642;-52
2022/01/28 20:08:01;;;;;;;9.82;6.25;;;;;;;14.66;32.36;94867.16;5081103;27;96870;-58
2022/01/28 20:10:27;;;;;;;8.07;6.13;;;;;;;14.66;33.01;94872.59;5099029;27;100378;-54
2022/01/28 20:12:56;;;;;;;8.98;6.90;;;;;;;14.59;32.52;94861.56;5080357;27;99126;-54
2022/01/28 20:15:22;;;;;;;6.60;5.35;;;;;;;14.64;32.14;94864.00;5081420;27;96953;-55
2022/01/28 20:17:47;;;;;;;7.78;5.47;;;;;;;14.61;31.82;94864.72;5099700;27;96821;-56
2022/01/28 20:20:13;;;;;;;8.20;5.68;;;;;;;14.61;32.10;94876.41;5098829;27;99664;-56
2022/01/28 20:22:42;;;;;;;8.23;5.50;;;;;;;14.59;31.87;94878.69;5098562;27;99367;-58
2022/01/28 20:25:10;;;;;;;6.97;5.53;;;;;;;14.60;32.06;94863.13;5099202;27;96753;-55
2022/01/28 20:27:35;;;;;;;6.15;4.93;;;;;;;14.58;31.77;94865.41;5099161;27;96958;-55
2022/01/28 20:30:02;;;;;;;6.28;4.85;;;;;;;14.59;31.32;94861.56;5098635;27;99576;-55
2022/01/28 20:32:28;;;;;;;7.82;5.25;;;;;;;14.57;31.72;94858.41;5098594;27;99506;-54
2022/01/28 20:34:53;;;;;;;6.78;5.07;;;;;;;14.57;31.69;94866.56;5099621;27;96608;-56
2022/01/28 20:37:19;;;;;;;5.75;4.47;;;;;;;14.56;31.43;94867.72;5099129;27;96990;-53
2022/01/28 20:39:44;;;;;;;6.75;5.07;;;;;;;14.55;31.10;94861.50;5098875;27;97932;-55
2022/01/28 20:42:09;;;;;;;6.82;5.05;;;;;;;14.55;31.63;94860.69;5098630;27;99632;-54
2022/01/28 20:44:35;;;;;;;7.05;4.63;;;;;;;14.54;31.88;94859.91;5099039;27;96627;-50
2022/01/28 20:47:00;;;;;;;6.20;4.70;;;;;;;14.53;31.10;94853.69;5098938;27;96938;-51
2022/01/28 20:49:27;;;;;;;5.90;4.60;;;;;;;14.51;30.75;94858.69;5097318;27;97945;-51
2022/01/28 20:51:52;;;;;;;5.10;4.50;;;;;;;14.50;30.89;94851.66;5098246;27;99369;-55
2022/01/28 20:54:17;;;;;;;7.53;4.50;;;;;;;14.47;31.15;94849.66;5098747;27;96973;-55
2022/01/28 20:56:43;;;;;;;6.97;4.75;;;;;;;14.54;31.54;94859.91;5098923;27;96902;-58
2022/01/28 20:59:08;;;;;;;5.43;4.03;;;;;;;14.55;31.48;94852.53;5098162;27;99462;-52
2022/01/28 21:01:34;;;;;;;6.22;4.38;;;;;;;14.50;31.19;94856.34;5098373;27;99387;-55
2022/01/28 21:03:59;;;;;;;6.55;4.38;;;;;;;14.57;30.98;94861.13;5098832;27;96604;-55
2022/01/28 21:06:25;;;;;;;5.38;4.13;;;;;;;14.60;30.89;94857.69;5098717;27;96906;-54
2022/01/28 21:08:50;;;;;;;5.10;4.13;;;;;;;14.61;30.42;94867.44;5098214;27;99389;-56
2022/01/28 21:11:16;;;;;;;6.35;4.35;;;;;;;14.62;30.82;94860.84;5097996;27;99948;-50
2022/01/28 21:13:41;;;;;;;4.90;4.03;;;;;;;14.62;30.44;94860.84;5098983;27;96727;-56
2022/01/28 21:16:07;;;;;;;5.65;4.10;;;;;;;14.62;30.29;94861.66;5098773;27;97010;-51
2022/01/28 21:18:32;;;;;;;5.82;3.97;;;;;;;14.64;29.91;94866.72;5098047;27;99520;-56
2022/01/28 21:20:58;;;;;;;5.60;4.68;;;;;;;14.62;30.63;94863.56;5097921;27;99508;-54
2022/01/28 21:23:23;;;;;;;4.82;4.30;;;;;;;14.62;30.58;94866.28;5080261;27;97449;-54
2022/01/28 21:25:50;;;;;;;6.43;4.35;;;;;;;14.60;30.82;94863.94;5097728;27;96955;-54
2022/01/28 21:28:16;;;;;;;6.32;4.20;;;;;;;14.60;30.75;94874.00;5098093;27;99631;-52
2022/01/28 21:30:42;;;;;;;6.47;4.13;;;;;;;14.60;30.57;94863.13;5097595;27;99209;-51
2022/01/28 21:33:07;;;;;;;5.13;4.30;;;;;;;14.58;30.74;94863.50;5098537;27;96825;-56
2022/01/28 21:35:33;;;;;;;5.45;3.88;;;;;;;14.59;30.14;94867.81;5098392;27;96678;-51
2022/01/28 21:37:58;;;;;;;9.85;4.10;;;;;;;14.60;33.34;94874.81;5084071;27;99470;-54
2022/01/28 21:40:24;;;;;;;14.70;4.88;;;;;;;14.63;33.87;94862.44;5084607;27;97665;-59
2022/01/28 21:42:49;;;;;;;8.07;4.18;;;;;;;14.60;34.36;94871.28;5084459;27;98712;-57
2022/01/28 21:45:15;;;;;;;55.50;50.65;;;;;;;14.65;35.06;94868.31;5083305;27;97019;-49
2022/01/28 21:47:40;;;;;;;306.00;149.32;;;;;;;14.64;34.81;94864.00;5082825;27;99507;-58
2022/01/28 21:50:06;;;;;;;56.80;44.25;;;;;;;14.73;34.77;94856.47;5084427;27;97749;-58
2022/01/28 21:52:31;;;;;;;126.07;111.40;;;;;;;14.88;34.12;94856.78;5084538;27;96703;-60
2022/01/28 21:54:57;;;;;;;89.65;81.40;;;;;;;15.10;34.25;94858.78;5083107;27;96956;-62
2022/01/28 21:57:26;;;;;;;23.50;17.73;;;;;;;15.39;33.23;94862.06;5082487;27;99528;-62
2022/01/28 21:59:51;;;;;;;21.42;14.85;;;;;;;15.67;32.94;94852.84;5081836;27;99866;-61
2022/01/28 22:02:17;;;;;;;21.92;14.10;;;;;;;16.09;32.43;94867.59;5082650;27;96836;-60
2022/01/28 22:04:42;;;;;;;17.52;13.85;;;;;;;16.39;32.22;94857.91;5082792;27;96976;-60
2022/01/28 22:07:08;;;;;;;15.95;13.30;;;;;;;16.64;32.04;94862.97;5082346;27;99731;-61
2022/01/28 22:09:33;;;;;;;22.45;12.23;;;;;;;16.94;32.16;94854.00;5086222;27;100715;-61
2022/01/28 22:11:59;;;;;;;17.52;11.63;;;;;;;17.34;32.59;94841.66;5080993;27;96713;-62
2022/01/28 22:14:24;;;;;;;434.08;375.85;;;;;;;17.72;32.18;94831.50;5093301;27;96889;-62
2022/01/28 22:16:49;;;;;;;147.80;125.75;;;;;;;17.97;31.36;94830.91;5095603;27;99875;-62
2022/01/28 22:19:15;;;;;;;127.95;114.18;;;;;;;18.13;31.36;94854.50;5095701;27;99357;-62
2022/01/28 22:21:41;;;;;;;305.02;274.77;;;;;;;18.14;30.63;94836.94;5096113;27;96724;-62
2022/01/28 22:24:06;;;;;;;41.30;36.78;;;;;;;18.24;30.19;94843.66;5095842;27;96947;-61
2022/01/28 22:26:32;;;;;;;33.70;29.65;;;;;;;18.39;31.27;94844.56;5093467;27;99745;-61
2022/01/28 22:28:58;;;;;;;28.85;25.67;;;;;;;18.39;30.97;94850.03;5075670;27;98831;-62
2022/01/28 22:31:24;;;;;;;28.23;23.33;;;;;;;18.41;30.60;94850.44;5075377;27;96702;-64
2022/01/28 22:33:52;;;;;;;22.95;19.02;;;;;;;18.46;30.26;94853.59;5075895;27;96900;-63
2022/01/28 22:36:18;;;;;;;20.50;18.08;;;;;;;18.54;30.13;94846.22;5075112;27;99239;-62
2022/01/28 22:38:46;;;;;;;24.60;17.58;;;;;;;18.66;30.43;94851.34;5075237;27;98948;-63
2022/01/28 22:41:12;;;;;;;21.15;16.33;;;;;;;18.64;31.17;94856.44;5075341;27;96764;-63
2022/01/28 22:43:37;;;;;;;23.77;15.88;;;;;;;18.55;31.27;94847.75;5057009;27;96896;-63
2022/01/28 22:46:03;;;;;;;20.77;16.00;;;;;;;18.49;32.19;94854.78;5074667;27;99674;-69
2022/01/28 22:48:30;;;;;;;22.05;16.92;;;;;;;18.41;31.63;94842.22;5074933;27;99660;-63
2022/01/28 22:50:56;;;;;;;17.85;15.77;;;;;;;18.28;32.50;94839.78;5074876;27;96646;-66
2022/01/28 22:53:21;;;;;;;18.95;16.13;;;;;;;18.15;32.77;94822.09;5074916;27;96657;-64
2022/01/28 22:55:48;;;;;;;67.28;60.42;;;;;;;18.11;32.95;94830.28;5081151;27;99453;-61
2022/01/28 22:58:14;;;;;;;241.80;217.98;;;;;;;18.04;33.93;94828.25;5095060;27;99234;-60
2022/01/28 23:00:39;;;;;;;160.15;145.50;;;;;;;17.97;33.69;94825.44;5094637;27;96916;-61
2022/01/28 23:03:05;;;;;;;44.33;39.83;;;;;;;17.89;33.40;94819.13;5075863;27;97418;-59
2022/01/28 23:05:30;;;;;;;28.25;24.92;;;;;;;17.81;32.04;94822.97;5094774;27;99319;-61
2022/01/28 23:07:56;;;;;;;21.52;19.17;;;;;;;17.74;31.72;94823.69;5095110;27;98902;-65
2022/01/28 23:10:21;;;;;;;19.60;15.93;;;;;;;17.70;32.41;94817.41;5095891;27;96825;-69
2022/01/28 23:12:47;;;;;;;19.33;13.02;;;;;;;17.66;33.11;94811.13;5096743;27;96814;-68
2022/01/28 23:15:12;;;;;;;14.05;12.50;;;;;;;17.66;33.51;94816.59;5098825;27;99324;-69
2022/01/28 23:17:38;;;;;;;15.30;10.32;;;;;;;17.67;34.90;94817.38;5098766;27;99323;-71
2022/01/28 23:20:04;;;;;;;13.38;10.02;;;;;;;17.66;34.45;94811.13;5098997;27;96618;-68
2022/01/28 23:22:30;;;;;;;13.73;8.90;;;;;;;17.69;35.47;94812.31;5099133;27;96887;-63
2022/01/28 23:24:56;;;;;;;8.68;7.22;;;;;;;17.68;37.95;94808.81;5098914;27;99441;-64
2022/01/28 23:27:22;;;;;;;7.55;6.78;;;;;;;17.74;34.38;94812.78;5098666;27;98056;-61
2022/01/28 23:29:49;;;;;;;7.22;5.90;;;;;;;17.78;33.72;94802.66;5098568;27;96654;-63
2022/01/28 23:32:16;;;;;;;7.65;5.50;;;;;;;17.78;34.84;94797.19;5099451;27;96907;-67
2022/01/28 23:34:42;;;;;;;8.43;5.05;;;;;;;17.88;33.41;94805.88;5098577;27;99524;-66
2022/01/28 23:37:07;;;;;;;7.20;4.90;;;;;;;17.90;32.98;94809.00;5098698;27;99385;-67
2022/01/28 23:39:33;;;;;;;28.95;22.38;;;;;;;17.94;34.27;94804.38;5099156;27;96664;-66
2022/01/28 23:41:58;;;;;;;152.23;137.32;;;;;;;17.98;34.63;94810.63;5098628;27;96931;-67
2022/01/28 23:44:24;;;;;;;134.20;101.57;;;;;;;18.00;33.35;94786.44;5061390;27;98614;-66
2022/01/28 23:46:49;;;;;;;56.15;45.03;;;;;;;18.32;32.61;94807.78;5098039;27;99411;-69
2022/01/28 23:49:15;;;;;;;94.43;85.07;;;;;;;18.48;31.97;94798.50;5098665;27;96747;-64
2022/01/28 23:51:42;;;;;;;42.30;37.30;;;;;;;18.58;30.67;94797.75;5098928;27;96902;-68
2022/01/28 23:54:08;;;;;;;29.95;25.50;;;;;;;18.73;30.37;94793.16;5097831;27;99388;-62
2022/01/28 23:56:36;;;;;;;23.40;20.05;;;;;;;18.89;30.03;94790.09;5098189;27;99474;-66
2022/01/28 23:59:01;;;;;;;20.63;16.40;;;;;;;19.03;29.72;94794.88;5080519;27;96681;-66
